Search for airport 
image banner adimage banner adimage banner ad
image banner ad

IA32 - Kelley

Located in Crescent, United States

ICAO - IA32, IATA -

Data provided by Airmate  

General information

Coordinates: N41°21'21" W95°50'54"
Elevation is 1129 feet MSL.
 
View others Airports in Iowa

Operational data

Special qualification required
Current time UTC:
Current local time:
Weather at : KOMA - Eppley Airfield ( 7 km )
METAR: KOMA 181752Z 02008KT 10SM FEW045 SCT100 SCT150 BKN250 32/19 A2981 RMK AO2 SLP082 60000 T03170194 10317 20222 58014
TAF: KOMA 181720Z 1818/1918 10011KT P6SM BKN120 FM190400 07011KT P6SM VCSH BKN090 FM190800 36008KT P6SM SCT150
View NOTAMs / SUP AIP / TFR affecting this airport [VIEW]
Communications frequencies: [VIEW]

Runways:

RWY identifierQFULength (ft)Width (ft)SurfaceLDA (ft)
17170050GRASS
35170050GRASS

Airport contact information

Address: Crescent United States

Satellite view of IA32